createdAt,value
2018-07-21T00:00:54.424Z,23.05
2018-07-21T00:01:55.138Z,23.06
2018-07-21T00:02:55.856Z,23.08
2018-07-21T00:03:56.573Z,23.12
2018-07-21T00:04:57.295Z,23.10
2018-07-21T00:05:58.017Z,23.12
2018-07-21T00:06:58.736Z,23.05
2018-07-21T00:07:59.456Z,23.02
2018-07-21T00:09:00.177Z,23.08
2018-07-21T00:10:00.904Z,23.05
2018-07-21T00:11:01.635Z,23.00
2018-07-21T00:12:02.365Z,22.94
2018-07-21T00:13:03.086Z,22.90
2018-07-21T00:14:03.846Z,22.93
2018-07-21T00:15:04.529Z,22.93
2018-07-21T00:16:05.244Z,22.94
2018-07-21T00:17:05.963Z,22.90
2018-07-21T00:18:06.681Z,22.93
2018-07-21T00:19:07.412Z,22.93
2018-07-21T00:20:08.132Z,22.93
2018-07-21T00:21:08.862Z,22.91
2018-07-21T00:22:09.583Z,22.91
2018-07-21T00:23:10.302Z,22.90
2018-07-21T00:24:11.023Z,22.90
2018-07-21T00:25:11.744Z,22.73
2018-07-21T00:26:12.460Z,22.72
2018-07-21T00:27:13.179Z,22.84
2018-07-21T00:28:13.900Z,22.80
2018-07-21T00:29:14.631Z,22.80
2018-07-21T00:30:15.351Z,22.76
2018-07-21T00:31:16.067Z,22.69
2018-07-21T00:32:16.785Z,22.75
2018-07-21T00:33:17.505Z,22.62
2018-07-21T00:34:18.242Z,22.65
2018-07-21T00:35:18.969Z,22.62
2018-07-21T00:36:19.689Z,22.65
2018-07-21T00:37:20.410Z,22.59
2018-07-21T00:38:21.131Z,22.62
2018-07-21T00:39:21.847Z,22.69
2018-07-21T00:40:22.578Z,22.65
2018-07-21T00:41:23.297Z,22.60
2018-07-21T00:42:24.017Z,22.59
2018-07-21T00:43:24.735Z,22.55
2018-07-21T00:44:25.465Z,22.57
2018-07-21T00:45:26.182Z,22.53
2018-07-21T00:46:26.900Z,22.54
2018-07-21T00:47:27.618Z,22.47
2018-07-21T00:48:28.351Z,22.51
2018-07-21T00:49:29.069Z,22.47
2018-07-21T00:50:29.785Z,22.47
2018-07-21T00:51:30.514Z,22.51
2018-07-21T00:52:31.233Z,22.45
2018-07-21T00:53:31.952Z,22.44
2018-07-21T00:59:08.360Z,22.38
2018-07-21T01:00:09.082Z,22.32
2018-07-21T01:01:09.808Z,22.30
2018-07-21T01:02:10.526Z,22.32
2018-07-21T01:03:11.244Z,22.25
2018-07-21T01:04:11.963Z,22.20
2018-07-21T01:05:12.684Z,22.17
2018-07-21T01:06:13.415Z,22.15
2018-07-21T01:07:14.132Z,22.18
2018-07-21T01:08:14.852Z,22.11
2018-07-21T01:09:15.571Z,22.14
2018-07-21T01:10:16.291Z,22.13
2018-07-21T01:11:17.014Z,22.15
2018-07-21T01:12:17.740Z,22.11
2018-07-21T01:13:18.459Z,22.07
2018-07-21T01:14:19.190Z,22.11
2018-07-21T01:15:19.921Z,22.02
2018-07-21T01:16:20.638Z,22.04
2018-07-21T01:17:21.371Z,22.10
2018-07-21T01:18:22.088Z,22.02
2018-07-21T01:19:22.806Z,22.06
2018-07-21T01:20:23.525Z,22.02
2018-07-21T01:21:24.252Z,21.95
2018-07-21T01:22:24.973Z,21.99
2018-07-21T01:23:25.690Z,22.00
2018-07-21T01:24:26.407Z,21.96
2018-07-21T01:25:27.132Z,21.92
2018-07-21T01:26:27.861Z,22.00
2018-07-21T01:27:28.585Z,21.92
2018-07-21T01:28:29.304Z,21.89
2018-07-21T01:29:30.026Z,21.85
2018-07-21T01:30:30.758Z,21.82
2018-07-21T01:31:31.476Z,21.75
2018-07-21T01:32:32.193Z,21.76
2018-07-21T01:33:32.920Z,21.73
2018-07-21T01:34:33.652Z,21.75
2018-07-21T01:35:34.370Z,21.75
2018-07-21T01:36:35.089Z,21.67
2018-07-21T01:37:35.809Z,21.69
2018-07-21T01:38:36.530Z,21.61
2018-07-21T01:39:37.260Z,21.61
2018-07-21T01:40:37.977Z,21.62
2018-07-21T01:41:38.706Z,21.57
2018-07-21T01:42:39.427Z,21.62
2018-07-21T01:43:40.149Z,21.51
2018-07-21T01:44:40.866Z,21.55
2018-07-21T01:45:41.584Z,21.52
2018-07-21T01:46:42.303Z,21.60
2018-07-21T01:47:43.021Z,21.52
2018-07-21T01:48:43.740Z,21.55
2018-07-21T01:49:44.459Z,21.61
2018-07-21T01:50:45.178Z,21.62
2018-07-21T01:51:45.894Z,21.66
2018-07-21T01:52:46.612Z,21.55
2018-07-21T01:53:47.330Z,21.58
2018-07-21T01:54:48.050Z,21.69
2018-07-21T01:55:48.772Z,21.62
2018-07-21T01:56:49.502Z,21.58
2018-07-21T01:57:50.220Z,21.61
2018-07-21T01:58:50.939Z,21.67
2018-07-21T01:59:51.657Z,21.64
2018-07-21T02:00:52.374Z,21.60
2018-07-21T02:01:53.095Z,21.66
2018-07-21T02:02:53.813Z,21.60
2018-07-21T02:03:54.534Z,21.64
2018-07-21T02:04:55.255Z,21.61
2018-07-21T02:05:55.985Z,21.61
2018-07-21T02:06:56.713Z,21.67
2018-07-21T02:07:57.432Z,21.67
2018-07-21T02:08:58.151Z,21.70
2018-07-21T02:09:58.880Z,21.66
2018-07-21T02:10:59.600Z,21.69
2018-07-21T02:12:00.318Z,21.67
2018-07-21T02:13:01.037Z,21.69
2018-07-21T02:14:01.766Z,21.76
2018-07-21T02:15:02.483Z,21.75
2018-07-21T02:16:03.199Z,21.69
2018-07-21T02:17:03.928Z,21.77
2018-07-21T02:18:04.648Z,21.73
2018-07-21T02:19:05.379Z,21.75
2018-07-21T02:20:06.099Z,21.70
2018-07-21T02:21:06.816Z,21.64
2018-07-21T02:22:07.533Z,21.66
2018-07-21T02:23:08.252Z,21.64
2018-07-21T02:24:08.986Z,21.62
2018-07-21T02:25:09.713Z,21.72
2018-07-21T02:26:10.434Z,21.67
2018-07-21T02:27:11.153Z,21.69
2018-07-21T02:28:11.885Z,21.66
2018-07-21T02:29:12.615Z,21.67
2018-07-21T02:30:13.345Z,21.64
2018-07-21T02:31:14.074Z,21.67
2018-07-21T02:32:14.804Z,21.70
2018-07-21T02:33:15.528Z,21.62
2018-07-21T02:34:16.246Z,21.58
2018-07-21T02:35:16.956Z,21.60
2018-07-21T02:36:17.674Z,21.55
2018-07-21T02:37:18.393Z,21.67
2018-07-21T02:38:19.124Z,21.62
2018-07-21T02:39:19.842Z,21.55
2018-07-21T02:40:20.579Z,21.61
2018-07-21T02:41:21.292Z,21.61
2018-07-21T02:42:22.008Z,21.55
2018-07-21T02:43:22.730Z,21.51
2018-07-21T02:44:23.444Z,21.46
2018-07-21T02:45:24.162Z,21.50
2018-07-21T02:46:24.884Z,21.48
2018-07-21T02:47:25.600Z,21.43
2018-07-21T02:48:26.323Z,21.46
2018-07-21T02:49:27.054Z,21.42
2018-07-21T02:50:27.781Z,21.45
2018-07-21T02:51:28.499Z,21.48
2018-07-21T02:52:29.222Z,21.45
2018-07-21T02:53:29.939Z,21.42
2018-07-21T02:54:30.658Z,21.33
2018-07-21T02:55:31.376Z,21.35
2018-07-21T02:56:32.094Z,21.33
2018-07-21T02:57:32.809Z,21.35
2018-07-21T02:58:33.525Z,21.35
2018-07-21T02:59:34.254Z,21.35
2018-07-21T03:00:34.971Z,21.29
2018-07-21T03:01:35.691Z,21.32
2018-07-21T03:02:36.406Z,21.15
2018-07-21T03:03:37.126Z,21.15
2018-07-21T03:04:37.841Z,21.20
2018-07-21T03:05:38.571Z,21.22
2018-07-21T03:06:39.297Z,21.21
2018-07-21T03:07:40.016Z,21.20
2018-07-21T03:08:40.739Z,21.21
2018-07-21T03:09:41.451Z,21.14
2018-07-21T03:10:42.167Z,21.21
2018-07-21T03:11:42.898Z,21.15
2018-07-21T03:12:43.612Z,21.18
2018-07-21T03:13:44.339Z,21.15
2018-07-21T03:14:45.054Z,21.17
2018-07-21T03:15:45.773Z,21.15
2018-07-21T03:16:46.489Z,21.06
2018-07-21T03:17:47.208Z,21.21
2018-07-21T03:18:47.929Z,21.15
2018-07-21T03:19:48.648Z,21.17
2018-07-21T03:20:49.366Z,21.20
2018-07-21T03:21:50.087Z,21.22
2018-07-21T03:22:50.806Z,21.15
2018-07-21T03:23:51.551Z,21.15
2018-07-21T03:24:52.240Z,21.21
2018-07-21T03:25:52.961Z,21.18
2018-07-21T03:26:53.673Z,21.21
2018-07-21T03:27:54.401Z,21.12
2018-07-21T03:28:55.120Z,21.22
2018-07-21T03:29:55.836Z,21.21
2018-07-21T03:30:56.597Z,21.20
2018-07-21T03:31:57.294Z,21.15
2018-07-21T03:32:58.011Z,21.11
2018-07-21T03:33:58.725Z,21.07
2018-07-21T03:34:59.443Z,21.15
2018-07-21T03:36:00.162Z,21.07
2018-07-21T03:37:00.878Z,21.15
2018-07-21T03:38:01.597Z,21.07
2018-07-21T03:39:02.319Z,21.09
2018-07-21T03:40:03.039Z,21.07
2018-07-21T03:41:03.760Z,21.12
2018-07-21T03:42:04.483Z,21.11
2018-07-21T03:43:05.202Z,21.07
2018-07-21T03:44:05.918Z,21.12
2018-07-21T03:45:06.963Z,21.11
2018-07-21T03:46:07.585Z,21.07
2018-07-21T03:47:08.301Z,21.09
2018-07-21T03:48:09.034Z,21.07
2018-07-21T03:49:09.760Z,21.05
2018-07-21T03:50:10.480Z,21.05
2018-07-21T03:51:11.201Z,21.09
2018-07-21T03:52:11.922Z,21.05
2018-07-21T03:53:12.653Z,21.03
2018-07-21T03:54:13.385Z,21.05
2018-07-21T03:55:14.104Z,20.97
2018-07-21T03:56:14.839Z,21.05
2018-07-21T03:57:15.556Z,21.07
2018-07-21T03:58:16.275Z,20.99
2018-07-21T03:59:16.992Z,21.09
2018-07-21T04:00:17.711Z,21.02
2018-07-21T04:01:18.432Z,21.09
2018-07-21T04:02:19.149Z,21.12
2018-07-21T04:03:19.871Z,21.07
2018-07-21T04:04:20.588Z,21.14
2018-07-21T04:05:21.307Z,21.06
2018-07-21T04:06:22.032Z,21.14
2018-07-21T04:07:22.760Z,21.12
2018-07-21T04:08:23.493Z,21.00
2018-07-21T04:09:24.213Z,21.06
2018-07-21T04:10:24.950Z,21.14
2018-07-21T04:11:25.683Z,21.11
2018-07-21T04:12:26.406Z,21.12
2018-07-21T04:13:27.126Z,21.12
2018-07-21T04:14:27.846Z,21.18
2018-07-21T04:15:28.568Z,21.12
2018-07-21T04:16:29.327Z,21.05
2018-07-21T04:17:30.012Z,21.14
2018-07-21T04:18:30.730Z,21.02
2018-07-21T04:19:31.451Z,21.05
2018-07-21T04:20:32.172Z,21.18
2018-07-21T04:21:32.892Z,21.07
2018-07-21T04:22:33.611Z,21.14
2018-07-21T04:23:34.347Z,21.14
2018-07-21T04:24:35.065Z,21.09
2018-07-21T04:25:35.786Z,21.15
2018-07-21T04:26:36.506Z,21.11
2018-07-21T04:27:37.241Z,21.06
2018-07-21T04:28:37.965Z,21.09
2018-07-21T04:29:38.703Z,21.00
2018-07-21T04:30:39.423Z,21.11
2018-07-21T04:31:40.142Z,21.06
2018-07-21T04:32:40.865Z,21.09
2018-07-21T04:33:41.587Z,21.07
2018-07-21T04:34:42.308Z,21.06
2018-07-21T04:35:43.073Z,21.03
2018-07-21T04:36:43.749Z,21.03
2018-07-21T04:37:44.469Z,20.97
2018-07-21T04:38:45.194Z,21.03
2018-07-21T04:39:45.918Z,21.06
2018-07-21T04:40:46.636Z,21.05
2018-07-21T04:41:47.354Z,21.02
2018-07-21T04:42:48.077Z,20.96
2018-07-21T04:43:48.796Z,21.00
2018-07-21T04:44:49.514Z,21.02
2018-07-21T04:45:50.247Z,20.97
2018-07-21T04:46:50.967Z,21.02
2018-07-21T04:47:51.690Z,20.97
2018-07-21T04:48:52.411Z,20.95
2018-07-21T04:49:53.145Z,20.95
2018-07-21T04:50:53.864Z,20.93
2018-07-21T04:51:54.585Z,20.88
2018-07-21T04:52:55.321Z,20.92
2018-07-21T04:53:56.103Z,20.95
2018-07-21T04:54:56.776Z,20.85
2018-07-21T04:55:57.498Z,20.82
2018-07-21T04:56:58.219Z,20.81
2018-07-21T04:57:58.942Z,20.82
2018-07-21T04:58:59.661Z,20.80
2018-07-21T05:00:00.381Z,20.84
2018-07-21T05:01:01.143Z,20.84
2018-07-21T05:02:01.822Z,20.87
2018-07-21T05:03:02.541Z,20.84
2018-07-21T05:04:03.271Z,20.92
2018-07-21T05:05:03.996Z,20.93
2018-07-21T05:06:04.717Z,20.88
2018-07-21T05:07:05.438Z,20.95
2018-07-21T05:08:06.164Z,20.96
2018-07-21T05:09:06.892Z,20.93
2018-07-21T05:10:07.614Z,21.05
2018-07-21T05:11:08.335Z,20.96
2018-07-21T05:12:09.074Z,20.99
2018-07-21T05:13:09.794Z,21.06
2018-07-21T05:14:10.514Z,21.09
2018-07-21T05:15:11.234Z,21.02
2018-07-21T05:16:11.956Z,21.15
2018-07-21T05:17:12.696Z,21.15
2018-07-21T05:18:13.415Z,21.12
2018-07-21T05:19:14.141Z,21.25
2018-07-21T05:20:14.877Z,21.24
2018-07-21T05:21:15.612Z,21.29
2018-07-21T05:22:16.332Z,21.29
2018-07-21T05:23:17.060Z,21.30
2018-07-21T05:24:17.782Z,21.33
2018-07-21T05:25:18.510Z,21.39
2018-07-21T05:26:19.243Z,21.46
2018-07-21T05:27:19.969Z,21.48
2018-07-21T05:28:20.693Z,21.50
2018-07-21T05:29:21.419Z,21.51
2018-07-21T05:30:22.148Z,21.55
2018-07-21T05:31:22.883Z,21.69
2018-07-21T05:32:23.603Z,21.67
2018-07-21T05:33:24.356Z,21.61
2018-07-21T05:34:25.094Z,21.75
2018-07-21T05:35:25.815Z,21.73
2018-07-21T05:36:26.537Z,21.69
2018-07-21T05:37:27.263Z,21.80
2018-07-21T05:38:27.984Z,21.76
2018-07-21T05:39:28.709Z,21.85
2018-07-21T05:40:29.433Z,21.87
2018-07-21T05:41:30.173Z,21.93
2018-07-21T05:43:46.513Z,21.95
2018-07-21T05:44:47.246Z,21.95
2018-07-21T05:45:47.967Z,22.02
2018-07-21T05:46:48.696Z,22.06
2018-07-21T05:47:49.431Z,22.06
2018-07-21T05:48:50.191Z,22.07
2018-07-21T05:49:50.917Z,22.10
2018-07-21T05:50:51.844Z,22.18
2018-07-21T05:51:52.565Z,22.15
2018-07-21T05:52:53.315Z,22.08
2018-07-21T05:55:09.661Z,22.20
2018-07-21T05:56:10.403Z,22.25
2018-07-21T05:57:11.163Z,22.20
2018-07-21T05:58:11.900Z,22.22
2018-07-21T05:59:12.629Z,22.17
2018-07-21T06:00:13.352Z,22.23
2018-07-21T06:01:14.078Z,22.25
2018-07-21T06:02:14.844Z,22.15
2018-07-21T06:03:15.574Z,22.20
2018-07-21T06:04:16.305Z,22.26
2018-07-21T06:05:17.084Z,22.26
2018-07-21T06:06:17.823Z,22.29
2018-07-21T06:07:18.558Z,22.29
2018-07-21T06:08:19.338Z,22.30
2018-07-21T06:10:35.671Z,22.32
2018-07-21T06:11:36.399Z,22.38
2018-07-21T06:12:37.123Z,22.38
2018-07-21T06:13:37.861Z,22.30
2018-07-21T06:14:38.581Z,22.23
2018-07-21T06:15:39.520Z,22.22
2018-07-21T06:16:40.268Z,22.17
2018-07-21T06:17:41.040Z,22.13
2018-07-21T06:18:41.807Z,22.10
2018-07-21T06:19:42.508Z,22.14
2018-07-21T06:20:43.246Z,22.15
2018-07-21T06:22:59.567Z,22.20
2018-07-21T06:24:00.292Z,22.17
2018-07-21T06:25:01.024Z,22.25
2018-07-21T06:26:02.117Z,22.18
2018-07-21T06:27:02.750Z,22.17
2018-07-21T06:28:03.514Z,22.29
2018-07-21T06:29:04.431Z,22.30
2018-07-21T06:30:05.573Z,22.33
2018-07-21T06:31:06.308Z,22.36
2018-07-21T06:32:07.254Z,22.38
2018-07-21T06:33:08.022Z,22.29
2018-07-21T06:34:08.758Z,22.32
2018-07-21T06:35:09.496Z,22.30
2018-07-21T06:36:10.429Z,22.43
2018-07-21T06:37:11.379Z,22.41
2018-07-21T06:38:12.107Z,22.50
2018-07-21T06:39:12.836Z,22.44
2018-07-21T06:40:13.567Z,22.48
2018-07-21T06:42:29.908Z,22.60
2018-07-21T06:43:30.640Z,22.62
2018-07-21T06:44:31.372Z,22.68
2018-07-21T06:45:32.313Z,22.78
2018-07-21T06:47:48.641Z,22.85
2018-07-21T06:48:49.581Z,22.84
2018-07-21T06:49:50.324Z,22.98
2018-07-21T06:50:51.056Z,23.06
2018-07-21T06:51:51.997Z,23.13
2018-07-21T06:52:52.924Z,23.25
2018-07-21T06:53:53.654Z,23.37
2018-07-21T06:54:54.385Z,23.50
2018-07-21T06:55:55.112Z,23.61
2018-07-21T06:56:56.047Z,23.66
2018-07-21T06:57:56.777Z,23.77
2018-07-21T06:58:57.509Z,23.80
2018-07-21T06:59:58.239Z,23.99
2018-07-21T07:00:58.973Z,24.01
2018-07-21T07:01:59.710Z,24.13
2018-07-21T07:03:00.439Z,24.24
2018-07-21T07:04:01.165Z,24.30
2018-07-21T07:05:01.894Z,24.28
2018-07-21T07:06:02.623Z,24.33
2018-07-21T07:07:03.348Z,24.33
2018-07-21T07:08:04.080Z,24.35
2018-07-21T07:09:04.819Z,24.38
2018-07-21T07:10:05.585Z,24.43
2018-07-21T07:11:06.272Z,24.36
2018-07-21T07:12:07.055Z,24.43
2018-07-21T07:13:07.743Z,24.50
2018-07-21T07:14:08.484Z,24.45
2018-07-21T07:15:09.214Z,24.50
2018-07-21T07:16:09.953Z,24.54
2018-07-21T07:17:10.683Z,24.58
2018-07-21T07:18:11.413Z,24.51
2018-07-21T07:19:12.141Z,24.53
2018-07-21T07:20:12.868Z,24.47
2018-07-21T07:21:13.594Z,24.36
2018-07-21T07:22:14.324Z,24.30
2018-07-21T07:23:15.052Z,24.14
2018-07-21T07:24:15.792Z,24.16
2018-07-21T07:25:16.517Z,24.23
2018-07-21T07:26:17.244Z,24.38
2018-07-21T07:27:17.991Z,24.45
2018-07-21T07:28:18.733Z,24.54
2018-07-21T07:29:19.512Z,24.73
2018-07-21T07:30:20.438Z,24.91
2018-07-21T07:31:21.181Z,25.03
2018-07-21T07:32:21.923Z,25.21
2018-07-21T07:33:22.657Z,25.14
2018-07-21T07:34:23.387Z,25.07
2018-07-21T07:35:24.113Z,24.98
2018-07-21T07:36:24.863Z,25.04
2018-07-21T07:37:25.590Z,24.98
2018-07-21T07:38:26.313Z,24.96
2018-07-21T07:39:27.037Z,24.96
2018-07-21T07:40:27.775Z,24.95
2018-07-21T07:41:28.506Z,24.89
2018-07-21T07:42:29.234Z,24.93
2018-07-21T07:43:29.961Z,25.11
2018-07-21T07:44:30.703Z,25.21
2018-07-21T07:45:31.443Z,25.28
2018-07-21T07:46:32.172Z,25.38
2018-07-21T07:47:32.899Z,25.53
2018-07-21T07:48:33.626Z,25.51
2018-07-21T07:49:34.353Z,25.53
2018-07-21T07:50:35.080Z,25.54
2018-07-21T07:51:35.806Z,25.46
2018-07-21T07:52:36.548Z,25.48
2018-07-21T07:53:37.276Z,25.54
2018-07-21T07:54:38.003Z,25.46
2018-07-21T07:55:38.730Z,25.46
2018-07-21T07:56:39.454Z,25.40
2018-07-21T07:57:40.181Z,25.40
2018-07-21T07:58:40.920Z,25.32
2018-07-21T07:59:41.647Z,25.14
2018-07-21T08:00:42.391Z,25.28
2018-07-21T08:01:43.130Z,25.35
2018-07-21T08:02:43.858Z,25.50
2018-07-21T08:03:44.590Z,25.63
2018-07-21T08:04:45.314Z,25.75
2018-07-21T08:05:46.047Z,25.95
2018-07-21T08:06:46.781Z,26.23
2018-07-21T08:07:47.517Z,26.41
2018-07-21T08:08:48.246Z,26.51
2018-07-21T08:09:48.989Z,26.77
2018-07-21T08:10:49.733Z,27.02
2018-07-21T08:11:50.520Z,27.12
2018-07-21T08:12:51.205Z,27.40
2018-07-21T08:13:51.946Z,27.58
2018-07-21T08:14:52.675Z,27.55
2018-07-21T08:15:53.421Z,27.14
2018-07-21T08:16:54.149Z,27.27
2018-07-21T08:17:54.879Z,27.30
2018-07-21T08:18:55.609Z,27.39
2018-07-21T08:19:56.359Z,27.35
2018-07-21T08:20:57.096Z,27.18
2018-07-21T08:21:57.840Z,27.15
2018-07-21T08:22:58.569Z,27.08
2018-07-21T08:23:59.298Z,27.10
2018-07-21T08:25:00.029Z,27.07
2018-07-21T08:26:00.758Z,26.99
2018-07-21T08:27:01.492Z,26.99
2018-07-21T08:28:02.230Z,26.97
2018-07-21T08:29:03.014Z,27.12
2018-07-21T08:30:03.693Z,27.30
2018-07-21T08:31:04.420Z,27.22
2018-07-21T08:32:05.150Z,27.30
2018-07-21T08:33:05.895Z,27.40
2018-07-21T08:34:06.625Z,27.42
2018-07-21T08:35:07.356Z,27.51
2018-07-21T08:36:08.084Z,27.52
2018-07-21T08:37:08.819Z,27.63
2018-07-21T08:38:09.545Z,27.63
2018-07-21T08:39:10.291Z,27.67
2018-07-21T08:40:11.023Z,27.68
2018-07-21T08:41:11.749Z,27.71
2018-07-21T08:42:12.490Z,27.68
2018-07-21T08:43:13.219Z,27.70
2018-07-21T08:44:13.950Z,27.67
2018-07-21T08:45:14.678Z,27.67
2018-07-21T08:46:15.408Z,27.71
2018-07-21T08:47:16.138Z,27.60
2018-07-21T08:48:16.866Z,27.65
2018-07-21T08:49:17.596Z,27.90
2018-07-21T08:50:18.326Z,28.08
2018-07-21T08:51:19.056Z,28.26
2018-07-21T08:52:19.801Z,28.54
2018-07-21T08:53:20.527Z,28.44
2018-07-21T08:54:21.260Z,28.52
2018-07-21T08:55:21.989Z,28.56
2018-07-21T08:56:22.720Z,28.60
2018-07-21T08:57:23.468Z,28.57
2018-07-21T08:58:24.198Z,28.59
2018-07-21T08:59:24.940Z,28.41
2018-07-21T09:00:25.684Z,28.32
2018-07-21T09:01:26.421Z,28.39
2018-07-21T09:02:27.148Z,28.38
2018-07-21T09:03:27.879Z,28.49
2018-07-21T09:04:28.610Z,28.44
2018-07-21T09:05:29.340Z,28.52
2018-07-21T09:06:30.070Z,28.56
2018-07-21T09:07:30.804Z,28.57
2018-07-21T09:08:31.545Z,28.69
2018-07-21T09:09:32.274Z,28.60
2018-07-21T09:10:33.007Z,28.69
2018-07-21T09:11:33.736Z,28.62
2018-07-21T09:12:34.468Z,28.59
2018-07-21T09:13:35.198Z,28.60
2018-07-21T09:14:35.928Z,28.44
2018-07-21T09:15:36.658Z,28.59
2018-07-21T09:16:37.387Z,28.59
2018-07-21T09:17:38.118Z,28.57
2018-07-21T09:18:38.868Z,28.52
2018-07-21T09:19:39.578Z,28.62
2018-07-21T09:20:40.320Z,28.60
2018-07-21T09:21:41.069Z,28.78
2018-07-21T09:22:41.806Z,28.84
2018-07-21T09:23:42.538Z,28.85
2018-07-21T09:24:43.268Z,29.13
2018-07-21T09:25:44.010Z,29.29
2018-07-21T09:26:44.740Z,29.44
2018-07-21T09:27:45.474Z,29.76
2018-07-21T09:28:46.216Z,30.06
2018-07-21T09:29:46.948Z,30.19
2018-07-21T09:30:47.694Z,30.40
2018-07-21T09:31:48.426Z,30.43
2018-07-21T09:32:49.159Z,30.43
2018-07-21T09:33:49.888Z,30.44
2018-07-21T09:34:50.624Z,30.48
2018-07-21T09:36:53.090Z,30.69
2018-07-21T09:37:53.824Z,30.92
2018-07-21T09:38:54.559Z,31.25
2018-07-21T09:39:55.306Z,31.61
2018-07-21T09:40:56.040Z,32.09
2018-07-21T09:42:51.542Z,32.97
2018-07-21T09:43:52.277Z,33.32
2018-07-21T09:44:53.014Z,33.62
2018-07-21T09:45:53.752Z,33.69
2018-07-21T09:46:54.508Z,33.69
2018-07-21T09:47:55.244Z,33.64
2018-07-21T09:48:55.983Z,33.58
2018-07-21T09:49:56.721Z,33.59
2018-07-21T09:50:57.463Z,33.87
2018-07-21T09:51:58.215Z,34.03
2018-07-21T09:52:58.959Z,34.17
2018-07-21T09:53:59.714Z,33.95
2018-07-21T09:55:00.455Z,33.73
2018-07-21T09:56:01.212Z,33.65
2018-07-21T09:57:01.938Z,33.67
2018-07-21T09:58:02.683Z,33.53
2018-07-21T09:59:03.428Z,33.30
2018-07-21T10:00:04.186Z,33.15
2018-07-21T10:01:04.923Z,33.15
2018-07-21T10:02:05.666Z,32.96
2018-07-21T10:03:06.421Z,32.93
2018-07-21T10:04:07.176Z,33.00
2018-07-21T10:05:07.916Z,33.08
2018-07-21T10:06:08.659Z,33.52
2018-07-21T10:07:09.404Z,33.67
2018-07-21T10:08:10.162Z,33.80
2018-07-21T10:09:10.918Z,34.11
2018-07-21T10:10:11.664Z,34.36
2018-07-21T10:11:12.416Z,34.57
2018-07-21T10:12:13.155Z,34.77
2018-07-21T10:13:13.909Z,34.86
2018-07-21T10:14:14.652Z,35.05
2018-07-21T10:15:15.393Z,34.99
2018-07-21T10:16:16.135Z,35.07
2018-07-21T10:17:16.876Z,35.24
2018-07-21T10:18:17.623Z,35.04
2018-07-21T10:19:18.359Z,34.95
2018-07-21T10:20:19.104Z,35.11
2018-07-21T10:21:19.860Z,35.04
2018-07-21T10:22:20.601Z,35.05
2018-07-21T10:23:21.357Z,35.19
2018-07-21T10:24:22.103Z,35.19
2018-07-21T10:25:22.843Z,35.37
2018-07-21T10:26:23.582Z,35.79
2018-07-21T10:27:24.327Z,36.01
2018-07-21T10:29:25.756Z,36.36
2018-07-21T10:30:27.710Z,36.40
2018-07-21T10:31:28.452Z,36.36
2018-07-21T10:32:29.190Z,36.33
2018-07-21T10:33:29.967Z,36.16
2018-07-21T10:34:30.665Z,36.37
2018-07-21T10:35:31.404Z,36.47
2018-07-21T10:36:32.144Z,36.65
2018-07-21T10:38:48.712Z,37.14
2018-07-21T10:39:50.067Z,37.39
2018-07-21T10:40:50.813Z,37.45
2018-07-21T10:43:00.253Z,37.45
2018-07-21T10:44:00.992Z,37.42
2018-07-21T10:45:01.731Z,37.48
2018-07-21T10:46:02.470Z,37.47
2018-07-21T10:47:03.209Z,37.49
2018-07-21T10:48:03.964Z,37.47
2018-07-21T10:49:04.702Z,37.48
2018-07-21T10:50:05.441Z,37.06
2018-07-21T10:51:06.181Z,36.24
2018-07-21T10:52:06.919Z,36.09
2018-07-21T10:57:44.492Z,35.41
2018-07-21T10:58:45.232Z,35.10
2018-07-21T10:59:45.972Z,35.22
2018-07-21T11:00:46.715Z,35.34
2018-07-21T11:01:47.454Z,35.42
2018-07-21T11:02:48.195Z,35.26
2018-07-21T11:03:48.937Z,35.17
2018-07-21T11:04:49.677Z,34.99
2018-07-21T11:05:50.418Z,35.08
2018-07-21T11:06:51.172Z,35.31
2018-07-21T11:07:51.913Z,35.85
2018-07-21T11:08:52.650Z,35.92
2018-07-21T11:09:53.388Z,35.90
2018-07-21T11:10:54.143Z,35.82
2018-07-21T11:11:54.883Z,35.44
2018-07-21T11:12:55.621Z,34.97
2018-07-21T11:13:56.378Z,35.23
2018-07-21T11:14:57.129Z,35.18
2018-07-21T11:15:57.876Z,35.17
2018-07-21T11:16:58.616Z,35.45
2018-07-21T11:17:59.406Z,35.49
2018-07-21T11:19:00.120Z,35.89
2018-07-21T11:20:00.863Z,36.36
2018-07-21T11:21:01.601Z,36.36
2018-07-21T11:22:02.428Z,36.73
2018-07-21T11:23:03.079Z,36.64
2018-07-21T11:24:03.833Z,36.84
2018-07-21T11:25:53.233Z,37.42
2018-07-21T11:26:53.987Z,37.71
2018-07-21T11:27:54.729Z,37.68
2018-07-21T11:28:55.483Z,37.45
2018-07-21T11:29:56.224Z,37.75
2018-07-21T11:30:56.962Z,37.83
2018-07-21T11:31:57.708Z,38.04
2018-07-21T11:32:58.457Z,37.55
2018-07-21T11:33:59.397Z,37.83
2018-07-21T11:35:00.135Z,38.12
2018-07-21T11:36:01.552Z,38.26
2018-07-21T11:37:02.024Z,38.60
2018-07-21T11:38:02.779Z,38.91
2018-07-21T11:39:03.526Z,39.07
2018-07-21T11:40:04.266Z,39.52
2018-07-21T11:41:05.007Z,39.55
2018-07-21T11:54:59.385Z,40.20
2018-07-21T11:56:00.333Z,40.41
2018-07-21T11:57:01.290Z,39.83
2018-07-21T11:58:02.036Z,39.68
2018-07-21T11:59:02.814Z,40.00
2018-07-21T12:02:31.416Z,39.81
2018-07-21T12:03:32.163Z,37.37
2018-07-21T12:04:32.920Z,36.92
2018-07-21T12:05:33.698Z,35.85
2018-07-21T12:06:34.400Z,35.17
2018-07-21T12:07:35.357Z,35.83
2018-07-21T12:13:03.965Z,34.02
2018-07-21T12:14:04.653Z,34.61
2018-07-21T12:15:05.404Z,35.45
2018-07-21T12:16:06.348Z,35.95
2018-07-21T12:18:23.316Z,37.35
2018-07-21T12:19:24.071Z,36.02
2018-07-21T12:20:24.827Z,35.39
2018-07-21T12:21:25.564Z,35.83
2018-07-21T12:22:26.309Z,35.92
2018-07-21T12:23:27.060Z,36.49
2018-07-21T12:29:27.695Z,35.24
2018-07-21T12:30:28.435Z,35.45
2018-07-21T12:31:29.188Z,35.15
2018-07-21T12:32:29.927Z,35.23
2018-07-21T12:33:30.714Z,35.82
2018-07-21T12:35:47.022Z,36.04
2018-07-21T12:38:03.379Z,35.92
2018-07-21T12:39:04.119Z,36.47
2018-07-21T12:40:04.857Z,36.28
2018-07-21T12:41:05.597Z,36.08
2018-07-21T12:42:50.987Z,35.88
2018-07-21T12:43:51.727Z,35.88
2018-07-21T12:44:52.541Z,36.47
2018-07-21T12:45:53.217Z,36.95
2018-07-21T12:46:53.957Z,37.39
2018-07-21T12:47:54.694Z,37.75
2018-07-21T12:48:55.433Z,38.17
2018-07-21T12:49:56.187Z,38.54
2018-07-21T12:50:56.929Z,38.80
2018-07-21T12:51:57.668Z,38.84
2018-07-21T12:52:58.408Z,38.87
2018-07-21T12:53:59.147Z,38.97
2018-07-21T12:54:59.887Z,38.54
2018-07-21T12:56:00.623Z,38.26
2018-07-21T12:57:01.361Z,37.75
2018-07-21T12:58:02.099Z,36.73
2018-07-21T12:59:02.850Z,36.54
2018-07-21T13:00:03.592Z,36.31
2018-07-21T13:01:04.338Z,36.24
2018-07-21T13:02:05.075Z,36.08
2018-07-21T13:03:05.813Z,35.74
2018-07-21T13:04:06.552Z,35.56
2018-07-21T13:05:07.311Z,35.76
2018-07-21T13:06:08.048Z,36.17
2018-07-21T13:07:08.787Z,36.42
2018-07-21T13:08:09.530Z,36.09
2018-07-21T13:09:10.271Z,36.33
2018-07-21T13:10:11.025Z,36.45
2018-07-21T13:11:11.776Z,36.67
2018-07-21T13:12:12.513Z,36.70
2018-07-21T13:13:13.255Z,36.96
2018-07-21T13:14:13.994Z,36.62
2018-07-21T13:15:14.731Z,36.93
2018-07-21T13:16:15.471Z,37.01
2018-07-21T13:17:16.210Z,36.98
2018-07-21T13:18:16.950Z,37.10
2018-07-21T13:19:17.688Z,37.21
2018-07-21T13:20:18.426Z,37.25
2018-07-21T13:21:19.166Z,37.48
2018-07-21T13:22:19.907Z,37.83
2018-07-21T13:23:20.648Z,37.87
2018-07-21T13:24:21.387Z,37.99
2018-07-21T13:25:22.124Z,37.94
2018-07-21T13:26:22.862Z,37.82
2018-07-21T13:27:23.616Z,37.71
2018-07-21T13:28:24.351Z,37.75
2018-07-21T13:29:25.102Z,37.64
2018-07-21T13:30:25.844Z,37.39
2018-07-21T13:31:26.580Z,37.44
2018-07-21T13:32:27.320Z,37.44
2018-07-21T13:33:28.059Z,37.39
2018-07-21T13:34:28.807Z,37.29
2018-07-21T15:04:16.357Z,31.03
2018-07-21T15:05:17.085Z,30.68
2018-07-21T15:06:17.811Z,30.73
2018-07-21T15:07:18.550Z,30.32
2018-07-21T15:08:19.278Z,30.23
2018-07-21T15:09:20.009Z,30.18
2018-07-21T15:10:20.750Z,30.28
2018-07-21T15:11:21.493Z,30.25
2018-07-21T15:12:22.288Z,30.34
2018-07-21T15:13:22.952Z,30.39
2018-07-21T15:14:23.697Z,30.50
2018-07-21T15:15:24.425Z,30.25
2018-07-21T15:16:25.165Z,30.19
2018-07-21T15:17:25.892Z,30.19
2018-07-21T15:18:26.623Z,30.12
2018-07-21T15:19:27.353Z,29.88
2018-07-21T15:20:28.081Z,29.87
2018-07-21T15:21:28.810Z,29.84
2018-07-21T15:22:29.538Z,29.86
2018-07-21T15:23:30.267Z,29.93